Salida, CO

3:12 PM MDT on August 30, 2016 (GMT -0600)
Salida

Weather History for KANK - March, 2014

Change the Weather History Date:

Saturday, March 29, 2014

  Actual Average (KGUC) Record (KGUC)
Temperature  
Mean Temperature 42 °F -  
Max Temperature 57 °F 47 °F 64 °F (2015)
Min Temperature 26 °F 20 °F 8 °F (2003)
Degree Days  
Heating Degree Days 24    
Moisture  
Dew Point 7 °F    
Average Humidity 26    
Maximum Humidity 47    
Minimum Humidity 11    
Precipitation  
Precipitation 0.00 in - - ()
Sea Level Pressure  
Sea Level Pressure 30.25 in    
Wind  
Wind Speed 10 mph (West)    
Max Wind Speed 22 mph    
Max Gust Speed 34 mph    
Visibility 10 miles    
Events      
Averages and records for this station are not official NWS values.
T = Trace of Precipitation, MM = Missing Value Source: NWS Daily Summary

Daily Weather History Graph

Daily Weather History Graph

Search for Another Location

Airport or City:

Trip Planner

Search our weather history database for the weather conditions in past years. The results will help you decide how hot, cold, wet, or windy it might be!

Date:

Astronomy

Mar. 29, 2014 Rise Set
Actual Time 6:53 AM MDT 7:24 PM MDT
Civil Twilight 6:26 AM MDT 7:51 PM MDT
Nautical Twilight 5:55 AM MDT 8:22 PM MDT
Astronomical Twilight 5:23 AM MDT 8:55 PM MDT
Moon 6:03 AM MDT (3/29) 6:33 PM MDT (3/29)
Length of Visible Light 13h 24m
Length of Day
12h 31m
Waning Crescent, 1% of the Moon is Illuminated
Mar 29
Waning Crescent
Mar 30
New
Apr 7
First Quarter
Apr 15
Full
Apr 22
Last Quarter

Hourly Weather History & Observations

Time (MDT) Temp. Windchill Dew Point Humidity Pressure Visibility Wind Dir Wind Speed Gust Speed Precip Events Conditions
12:15 AM 30.4 °F - 7.3 °F 38% 30.35 in 10.0 mi Calm Calm - N/A   Clear
12:35 AM 30.4 °F - 7.2 °F 38% 30.35 in 10.0 mi Calm Calm - N/A   Clear
12:55 AM 30.2 °F 25.4 °F 7.3 °F 38% 30.36 in 10.0 mi NNW 4.6 mph - N/A   Clear
1:15 AM 29.8 °F 23.9 °F 7.0 °F 38% 30.36 in 10.0 mi NNW 5.8 mph - N/A   Clear
1:35 AM 28.6 °F 23.5 °F 7.7 °F 41% 30.37 in 10.0 mi West 4.6 mph - N/A   Clear
1:55 AM 29.8 °F 24.9 °F 7.7 °F 39% 30.35 in 10.0 mi NNW 4.6 mph - N/A   Clear
2:15 AM 30.9 °F 22.8 °F 7.9 °F 38% 30.35 in 10.0 mi NW 9.2 mph - N/A   Clear
2:35 AM 31.5 °F 25.8 °F 8.1 °F 37% 30.35 in 10.0 mi SW 5.8 mph - N/A   Clear
2:55 AM 31.8 °F 23.3 °F 9.1 °F 39% 30.35 in 10.0 mi NW 10.4 mph - N/A   Clear
3:15 AM 31.3 °F 21.1 °F 9.7 °F 41% 30.35 in 10.0 mi NNW 13.8 mph - N/A   Clear
3:35 AM 29.3 °F 20.8 °F 10.0 °F 45% 30.34 in 10.0 mi NNW 9.2 mph - N/A   Clear
3:55 AM 29.3 °F 19.1 °F 10.4 °F 45% 30.34 in 10.0 mi NNW 12.7 mph - N/A   Clear
4:15 AM 28.4 °F 20.4 °F 9.1 °F 44% 30.33 in 10.0 mi NNW 8.1 mph - N/A   Clear
4:35 AM 28.2 °F 17.7 °F 9.3 °F 45% 30.32 in 10.0 mi NNW 12.7 mph - N/A   Clear
4:55 AM 27.3 °F 16.6 °F 9.1 °F 46% 30.32 in 10.0 mi NNW 12.7 mph - N/A   Clear
5:15 AM 26.8 °F 15.9 °F 8.6 °F 46% 30.32 in 10.0 mi NNW 12.7 mph 16.1 mph N/A   Clear
5:35 AM 28.2 °F 17.7 °F 8.2 °F 43% 30.32 in 10.0 mi NW 12.7 mph 18.4 mph N/A   Clear
5:55 AM 27.9 °F 15.9 °F 8.6 °F 44% 30.33 in 10.0 mi NNW 16.1 mph 20.7 mph N/A   Clear
6:15 AM 27.3 °F 15.6 °F 8.4 °F 45% 30.33 in 10.0 mi NNW 15.0 mph - N/A   Clear
6:35 AM 26.1 °F 15.0 °F 8.2 °F 47% 30.34 in 10.0 mi NW 12.7 mph - N/A   Clear
6:55 AM 27.5 °F 15.4 °F 7.7 °F 43% 30.33 in 10.0 mi NNW 16.1 mph - N/A   Clear
7:15 AM 26.6 °F 13.8 °F 8.1 °F 46% 30.33 in 10.0 mi NNW 17.3 mph 21.9 mph N/A   Clear
7:35 AM 28.0 °F 17.5 °F 7.7 °F 42% 30.33 in 10.0 mi NNW 12.7 mph - N/A   Clear
7:55 AM 28.2 °F 17.7 °F 7.9 °F 42% 30.34 in 10.0 mi NNW 12.7 mph 19.6 mph N/A   Clear
8:15 AM 28.9 °F 19.8 °F 8.1 °F 41% 30.33 in 10.0 mi NNW 10.4 mph - N/A   Clear
8:35 AM 30.0 °F 20.0 °F 8.2 °F 40% 30.33 in 10.0 mi NNW 12.7 mph - N/A   Clear
8:55 AM 32.2 °F 23.8 °F 9.0 °F 38% 30.33 in 10.0 mi NNW 10.4 mph - N/A   Clear
9:15 AM 34.3 °F 28.4 °F 8.6 °F 34% 30.33 in 10.0 mi North 6.9 mph - N/A   Clear
9:35 AM 38.8 °F 35.4 °F 8.8 °F 29% 30.31 in 10.0 mi South 4.6 mph - N/A   Clear
9:55 AM 45.7 °F 39.1 °F 4.5 °F 18% 30.31 in 10.0 mi South 15.0 mph 23.0 mph N/A   Clear
10:15 AM 46.9 °F - 5.0 °F 18% 30.30 in 10.0 mi SSW 19.6 mph 25.3 mph N/A   Clear
10:35 AM 49.1 °F - 2.3 °F 15% 30.29 in 10.0 mi SW 13.8 mph 23.0 mph N/A   Clear
10:55 AM 49.1 °F - 3.2 °F 15% 30.29 in 10.0 mi SSW 17.3 mph 26.5 mph N/A   Clear
11:15 AM 50.7 °F - 2.1 °F 14% 30.27 in 10.0 mi SSW 21.9 mph 27.6 mph N/A   Clear
11:35 AM 52.9 °F - 0.9 °F 12% 30.27 in 10.0 mi WSW 17.3 mph 27.6 mph N/A   Clear
11:55 AM 53.6 °F - -0.4 °F 11% 30.26 in 10.0 mi WSW 17.3 mph 34.5 mph N/A   Clear
12:15 PM 55.0 °F - 0.7 °F 11% 30.26 in 10.0 mi WSW 20.7 mph 29.9 mph N/A   Clear
12:35 PM 53.8 °F - 0.1 °F 11% 30.25 in 10.0 mi West 20.7 mph 32.2 mph N/A   Clear
12:55 PM 55.9 °F - 1.4 °F 11% 30.24 in 10.0 mi SW 20.7 mph 28.8 mph N/A   Clear
1:15 PM 56.3 °F - 2.1 °F 11% 30.23 in 10.0 mi SW 19.6 mph 28.8 mph N/A   Clear
1:35 PM 55.8 °F - 2.1 °F 11% 30.22 in 10.0 mi West 16.1 mph 27.6 mph N/A   Clear
1:55 PM 56.7 °F - 1.6 °F 11% 30.22 in 10.0 mi West 21.9 mph 26.5 mph N/A   Clear
2:15 PM 55.9 °F - 2.3 °F 11% 30.20 in 10.0 mi West 19.6 mph 27.6 mph N/A   Clear
2:35 PM 56.7 °F - 2.8 °F 11% 30.19 in 10.0 mi West 21.9 mph 28.8 mph N/A   Clear
2:55 PM 56.5 °F - 3.4 °F 12% 30.19 in 10.0 mi West 19.6 mph 24.2 mph N/A   Clear
3:15 PM 57.0 °F - 4.1 °F 12% 30.17 in 10.0 mi West 19.6 mph 28.8 mph N/A   Clear
3:35 PM 56.1 °F - 4.6 °F 13% 30.17 in 10.0 mi West 17.3 mph 31.1 mph N/A   Clear
3:55 PM 56.3 °F - 5.2 °F 13% 30.17 in 10.0 mi West 16.1 mph 26.5 mph N/A   Clear
4:15 PM 57.4 °F - 5.9 °F 13% 30.17 in 10.0 mi WSW 17.3 mph 24.2 mph N/A   Clear
4:35 PM 55.8 °F - 6.1 °F 14% 30.17 in 10.0 mi WSW 18.4 mph 29.9 mph N/A   Clear
4:55 PM 56.7 °F - 7.2 °F 14% 30.16 in 10.0 mi WSW 19.6 mph 27.6 mph N/A   Clear
5:15 PM 54.1 °F - 8.6 °F 16% 30.16 in 10.0 mi WSW 16.1 mph 23.0 mph N/A   Clear
5:35 PM 54.7 °F - 9.3 °F 16% 30.17 in 10.0 mi SW 13.8 mph 19.6 mph N/A   Clear
5:55 PM 54.9 °F - 9.7 °F 16% 30.16 in 10.0 mi WSW 13.8 mph 20.7 mph N/A   Clear
6:15 PM 55.0 °F - 9.1 °F 16% 30.15 in 10.0 mi West 10.4 mph 20.7 mph N/A   Clear
6:35 PM 52.9 °F - 9.9 °F 18% 30.15 in 10.0 mi WSW 12.7 mph 24.2 mph N/A   Clear
6:55 PM 52.0 °F - 10.8 °F 19% 30.15 in 10.0 mi SW 9.2 mph - N/A   Clear
7:15 PM 51.6 °F - 9.7 °F 19% 30.15 in 10.0 mi SW 15.0 mph 20.7 mph N/A   Clear
7:35 PM 51.3 °F - 10.6 °F 20% 30.15 in 10.0 mi SW 10.4 mph 21.9 mph N/A   Clear
7:55 PM 50.0 °F - 11.8 °F 22% 30.15 in 10.0 mi SSW 13.8 mph 19.6 mph N/A   Clear
8:15 PM 50.0 °F - 11.8 °F 22% 30.15 in 10.0 mi SW 10.4 mph 25.3 mph N/A   Clear
8:35 PM 49.1 °F - 11.8 °F 22% 30.17 in 10.0 mi SW 13.8 mph 17.3 mph N/A   Clear
8:55 PM 49.1 °F - 10.9 °F 22% 30.17 in 10.0 mi SW 11.5 mph 18.4 mph N/A   Clear
9:15 PM 48.4 °F - 10.4 °F 22% 30.17 in 10.0 mi SW 12.7 mph 18.4 mph N/A   Clear
9:35 PM 48.2 °F - 10.4 °F 22% 30.17 in 10.0 mi SW 11.5 mph - N/A   Clear
9:55 PM 46.4 °F 41.5 °F 11.3 °F 24% 30.17 in 10.0 mi WSW 10.4 mph - N/A   Clear
10:15 PM 49.3 °F - 9.5 °F 20% 30.17 in 10.0 mi SSW 13.8 mph 24.2 mph N/A   Clear
10:35 PM 48.6 °F - 10.0 °F 21% 30.17 in 10.0 mi SW 10.4 mph 18.4 mph N/A   Clear
10:55 PM 48.7 °F - 9.5 °F 21% 30.16 in 10.0 mi SW 12.7 mph 19.6 mph N/A   Clear
11:15 PM 49.1 °F - 8.8 °F 20% 30.16 in 10.0 mi SW 13.8 mph 23.0 mph N/A   Clear
11:35 PM 48.4 °F - 8.6 °F 20% 30.15 in 10.0 mi SW 11.5 mph - N/A   Clear
11:55 PM 48.2 °F - 8.6 °F 20% 30.15 in 10.0 mi SW 13.8 mph 19.6 mph N/A   Clear